Observations for GLASGOW AIRPORT, United Kingdom (EGPF)

EGPF 151950Z AUTO 23004KT 9999 NCD 15/14 Q1005  
EGPF 151920Z AUTO 23006KT 200V260 9999 BKN045 16/14 Q1005   
EGPF 151850Z AUTO 25004KT 200V320 9999 FEW036 16/14 Q1005   
EGPF 151820Z AUTO VRB03KT 9999 NCD 16/14 Q1005  
EGPF 151750Z AUTO 17004KT 9999 //////TCU 16/14 Q1005
EGPF 151720Z AUTO VRB03KT 9999 -RA //////CB 15/13 Q1006 
EGPF 151650Z AUTO 29004KT 9999 -RA FEW043/// //////TCU 15/13 Q1006  
EGPF 151620Z AUTO 29005KT 9999 BKN046/// //////TCU 17/13 Q1006  
EGPF 151550Z AUTO 28006KT 9999 //////TCU 17/13 Q1006
EGPF 151520Z AUTO 28008KT 9999 NCD 17/13 Q1007  
EGPF 151450Z AUTO 27010KT 240V310 9999 FEW037 BKN043 18/13 Q1007
EGPF 151420Z AUTO 23016KT 9999 NCD 19/13 Q1007  
EGPF 151350Z AUTO 23017KT 9999 SCT026 19/13 Q1007   
EGPF 151320Z AUTO 21021KT 9999 SCT024 SCT038 19/13 Q1007
EGPF 151250Z AUTO 22020KT 9999 SCT022 19/14 Q1007   
EGPF 151220Z AUTO 21020KT 9999 BKN021 BKN048 19/15 Q1007
EGPF 151150Z AUTO 21017KT 9999 BKN019 BKN023 19/15 Q1007
EGPF 151120Z AUTO 21012KT 180V250 9999 BKN016 BKN034 19/15 Q1007
EGPF 151050Z AUTO 23009KT 9999 BKN014/// BKN020/// BKN026/// 17/16 Q1008
EGPF 151020Z AUTO 25009KT 9999 -RA BKN013 BKN021 BKN027 17/15 Q1008 
EGPF 150950Z AUTO 24011KT 9999 BKN011 OVC021 17/16 Q1008
EGPF 150920Z AUTO 24009KT 7000 -RA BKN007/// OVC010/// //////TCU 16/16 Q1008 RERA   
EGPF 150850Z AUTO 23010KT 4000 RA FEW006/// BKN016/// OVC027/// //////TCU 16/16 Q1008   
EGPF 150820Z AUTO 23012KT 9000 -RA BKN007 BKN015 OVC020 16/16 Q1008 
EGPF 150750Z AUTO 23013KT 9999 -RA OVC010/// //////TCU 17/16 Q1008  
EGPF 150720Z AUTO 22012KT 9999 OVC009/// //////TCU 17/16 Q1008  
EGPF 150650Z AUTO 23010KT 9999 -RA BKN010/// OVC016/// //////TCU 17/16 Q1008
EGPF 150620Z AUTO 23010KT 9999 -RA BKN009/// OVC014/// //////TCU 16/15 Q1008
EGPF 150550Z AUTO 21015KT 9999 OVC010/// //////CB 16/15 Q1008   
EGPF 150520Z AUTO 22014KT 9999 -RA BKN010/// //////CB 16/15 Q1008   
EGPF 150450Z AUTO 21016KT 9999 -RA OVC010/// //////CB 16/15 Q1008   
EGPF 150420Z AUTO 22015KT 9999 OVC010/// //////TCU 16/15 Q1008  
EGPF 150350Z AUTO 22014KT 9999 BKN009 OVC012 16/16 Q1008
EGPF 150320Z AUTO 21014KT 9000 -RA OVC008 16/16 Q1009   
EGPF 150250Z AUTO 22013KT 9999 -RA OVC008 16/16 Q1009   
EGPF 150220Z AUTO 21014KT 3100 -RADZ OVC007 16/16 Q1009 RERA REDZ   
EGPF 150150Z AUTO 21015KT 9999 BKN009 OVC034 17/16 Q1009
EGPF 150120Z 21011KT 9999 BKN005 OVC017 16/16 Q1009 REDZ
EGPF 150050Z AUTO VRB01KT 2500 DZ OVC003 15/15 Q1009
EGPF 150020Z AUTO 07003KT 2600 -RADZ OVC003 15/15 Q1010 
EGPF 142350Z AUTO VRB02KT 5000 -DZ OVC006 15/15 Q1010 REDZ  
EGPF 142320Z AUTO 15002KT 3100 -RADZ OVC007 15/15 Q1010 
EGPF 142250Z AUTO 18002KT 6000 -RA OVC011 15/15 Q1010 REDZ  
EGPF 142220Z AUTO VRB02KT 9999 -RA OVC013 15/14 Q1011   
EGPF 142150Z AUTO 24004KT 9999 OVC013 15/14 Q1011   
EGPF 142120Z AUTO 23006KT 9999 OVC013 16/14 Q1011   
EGPF 142050Z AUTO 25003KT 9999 BKN011 OVC016 16/14 Q1011
EGPF 142020Z AUTO 24005KT 9999 OVC012 16/14 Q1011   
EGPF 141950Z AUTO 26007KT 9999 BKN013 OVC019 16/14 Q1011
EGPF 141920Z AUTO 26009KT 9999 OVC012 16/14 Q1011